KPZQ METAR Reports


Rogers City, Presque Isle County Airport, MI, United States (KPZQ) 45-24-25N 083-48-46W
May 29, 2020 - 03:15 PM EDT / 2020.05.29 1915 UTC
Wind: from the NNW (340 degrees) at 9 MPH (8 KT):0
Visibility: 10 mile(s):0
Sky conditions: clear
Temperature: 59.9 F (15.5 C)
Dew Point: 53.8 F (12.1 C)
Relative Humidity: 80%
Pressure (altimeter): 29.87 in. Hg (1011 hPa)
ob: KPZQ 291915Z AUTO 34008KT 10SM CLR 16/12 A2987 RMK AO2 T01550121
cycle: 19

 

Rogers City METAR Meteogram

Weather Chart

Nearby METAR Reports

KPZQ - Rogers City, Michigan, USA
Distance from station: SSW 1mi, 2km
Updated: Fri, 29-May-2020 3:15pm EDT
Clear
Clear
 Wind from NNW
Wind: NNW 9 mph , 15 km/h
Temperature: 61°F , 16°C
Dew Point: 54°F , 12°C
Humidity: 77%
Barometer: 29.87 inHg , 1011.5 hPa
Clouds: Clear
Visibility: 10 miles , 16 km
2020/05/29 19:15 KPZQ 291915Z AUTO 34008KT 10SM CLR 16/12 A2987 RMK AO2 T01550121
KAPN - Alpena, Michigan, USA
Distance from station: SSE 27mi, 43km
Updated: Fri, 29-May-2020 2:54pm EDT
NOT Current
Few Clouds
Few Clouds
 Wind from SW
Wind: SW 8 mph , 13 km/h
Temperature: 66°F , 19°C
Dew Point: 54°F , 12°C
Humidity: 64%
Barometer: 29.84 inHg , 1010.5 hPa
Clouds: Few Clouds
Visibility: 10 miles , 16 km
Cloud details: Few Clouds 2700 ft
2020/05/29 18:54 KAPN 291854Z 23007KT 10SM FEW027 19/12 A2984 RMK AO2 SLP105 T01940122
 
KSLH - Cheboygan, Michigan, USA
Distance from station: WNW 38mi, 61km
Updated: Fri, 29-May-2020 3:16pm EDT
Partly cloudy
Partly cloudy
 Wind from N
Wind: N 12 mph , 19 km/h
Temperature: 66°F , 19°C
Dew Point: 55°F , 13°C
Humidity: 68%
Barometer: 29.84 inHg , 1010.5 hPa
Clouds: Partly cloudy
Visibility: 10 miles , 16 km
Cloud details: Partly cloudy 3200 ft
Partly cloudy 4000 ft
Partly cloudy 11000 ft
2020/05/29 19:16 KSLH 291916Z AUTO 36010KT 10SM SCT032 SCT040 SCT110 19/13 A2984 RMK AO2 T01900125
KDRM - Drummond Is, Michigan, USA
Distance from station: N 40mi, 65km
Updated: Fri, 29-May-2020 3:15pm EDT
Mostly cloudy
Mostly cloudy
 Wind from N
Wind: N 3 mph , 6 km/h
Temperature: 66°F , 19°C
Dew Point: 54°F , 12°C
Humidity: 64%
Barometer: 29.85 inHg , 1010.8 hPa
Clouds: Mostly cloudy
Visibility: 10 miles , 16 km
Cloud details: Partly cloudy 2700 ft
Mostly cloudy 3600 ft
2020/05/29 19:15 KDRM 291915Z AUTO 35003KT 10SM SCT027 BKN036 19/12 A2985 RMK AO2 T01870116
 
KPLN - Pellston, Michigan, USA
Distance from station: WNW 49mi, 79km
Updated: Fri, 29-May-2020 2:54pm EDT
NOT Current
Few Clouds
Few Clouds
 Wind from WNW
Wind: WNW 15 mph , 24 km/h
Temperature: 70°F , 21°C
Dew Point: 54°F , 12°C
Humidity: 57%
Barometer: 29.86 inHg , 1011.2 hPa
Clouds: Few Clouds
Visibility: 10 miles , 16 km
Cloud details: Few Clouds 2800 ft
2020/05/29 18:54 KPLN 291854Z AUTO 30013KT 10SM FEW028 21/12 A2986 RMK AO2 SLP111 T02060122
KMCD - Mackinac Island, Michigan, USA
Distance from station: NW 50mi, 80km
Updated: Fri, 29-May-2020 3:15pm EDT
Mostly cloudy
Mostly cloudy
 Wind from WSW
Wind: WSW 6 mph , 9 km/h
Temperature: 61°F , 16°C
Dew Point: 55°F , 13°C
Humidity: 83%
Barometer: 29.86 inHg , 1011.2 hPa
Clouds: Mostly cloudy
Visibility: 10 miles , 16 km
Cloud details: Mostly cloudy 11000 ft
2020/05/29 19:15 KMCD 291915Z AUTO 25005KT 10SM BKN110 16/13 A2986 RMK AO2 T01550130